createdAt,value
2023-04-03T00:00:04.568Z,1.50
2023-04-03T00:02:34.481Z,1.27
2023-04-03T00:05:07.349Z,1.47
2023-04-03T00:07:37.147Z,1.30
2023-04-03T00:10:07.950Z,1.30
2023-04-03T00:12:37.853Z,1.50
2023-04-03T00:15:08.960Z,1.60
2023-04-03T00:17:38.805Z,1.10
2023-04-03T00:20:12.568Z,1.37
2023-04-03T00:22:42.436Z,1.30
2023-04-03T00:25:13.525Z,1.60
2023-04-03T00:27:43.906Z,1.47
2023-04-03T00:30:18.033Z,1.80
2023-04-03T00:32:47.979Z,1.70
2023-04-03T00:35:21.957Z,2.13
2023-04-03T00:37:52.468Z,1.40
2023-04-03T00:40:23.324Z,1.50
2023-04-03T00:42:58.918Z,1.53
2023-04-03T00:45:38.069Z,1.47
2023-04-03T00:48:11.313Z,1.33
2023-04-03T00:50:46.683Z,1.33
2023-04-03T00:53:20.778Z,1.50
2023-04-03T00:55:53.951Z,1.83
2023-04-03T00:58:28.110Z,1.40
2023-04-03T01:01:01.987Z,1.10
2023-04-03T01:03:32.835Z,1.17
2023-04-03T01:06:05.902Z,1.60
2023-04-03T01:08:36.271Z,1.60
2023-04-03T01:11:06.145Z,1.40
2023-04-03T01:13:37.282Z,1.53
2023-04-03T01:16:08.660Z,1.53
2023-04-03T01:18:41.711Z,1.47
2023-04-03T01:21:58.930Z,2.07
2023-04-03T01:24:40.289Z,1.50
2023-04-03T01:27:18.503Z,1.50
2023-04-03T01:29:51.338Z,1.50
2023-04-03T01:32:23.752Z,1.53
2023-04-03T01:34:53.543Z,1.67
2023-04-03T01:37:23.365Z,1.60
2023-04-03T01:39:53.206Z,1.70
2023-04-03T01:42:24.527Z,1.40
2023-04-03T01:44:54.300Z,1.40
2023-04-03T01:47:27.084Z,1.57
2023-04-03T01:49:56.920Z,1.63
2023-04-03T01:52:27.747Z,1.47
2023-04-03T01:54:57.581Z,1.47
2023-04-03T01:57:27.414Z,1.90
2023-04-03T01:59:57.237Z,1.73
2023-04-03T02:02:33.044Z,1.50
2023-04-03T02:05:02.884Z,1.70
2023-04-03T02:07:32.746Z,1.90
2023-04-03T02:10:02.623Z,1.90
2023-04-03T02:12:32.594Z,1.47
2023-04-03T02:15:02.405Z,1.70
2023-04-03T02:17:35.028Z,1.80
2023-04-03T02:20:04.994Z,1.50
2023-04-03T02:22:35.115Z,1.80
2023-04-03T02:25:05.273Z,1.67
2023-04-03T02:27:35.093Z,2.07
2023-04-03T02:30:04.938Z,1.80
2023-04-03T02:32:37.364Z,1.83
2023-04-03T02:35:07.931Z,1.70
2023-04-03T02:37:37.960Z,1.57
2023-04-03T02:40:09.723Z,1.57
2023-04-03T02:42:39.596Z,1.40
2023-04-03T02:45:10.868Z,1.80
2023-04-03T02:47:44.093Z,1.73
2023-04-03T02:50:14.214Z,2.03
2023-04-03T02:52:43.994Z,1.60
2023-04-03T02:55:18.481Z,2.07
2023-04-03T02:57:49.073Z,1.73
2023-04-03T03:00:19.484Z,1.90
2023-04-03T03:02:53.810Z,1.90
2023-04-03T03:05:23.699Z,1.70
2023-04-03T03:07:55.964Z,1.77
2023-04-03T03:10:26.296Z,1.80
2023-04-03T03:12:56.105Z,1.80
2023-04-03T03:15:26.130Z,1.90
2023-04-03T03:17:58.562Z,1.90
2023-04-03T03:20:28.534Z,1.60
2023-04-03T03:22:58.347Z,1.90
2023-04-03T03:25:28.256Z,1.70
2023-04-03T03:27:58.059Z,1.90
2023-04-03T03:30:27.860Z,2.00
2023-04-03T03:33:02.676Z,2.03
2023-04-03T03:35:32.534Z,1.40
2023-04-03T03:38:02.347Z,2.47
2023-04-03T03:40:32.146Z,1.80
2023-04-03T03:43:07.272Z,2.20
2023-04-03T03:45:37.355Z,2.10
2023-04-03T03:48:10.092Z,2.03
2023-04-03T03:50:40.072Z,2.00
2023-04-03T03:53:09.880Z,2.10
2023-04-03T03:55:39.938Z,1.90
2023-04-03T03:58:09.849Z,1.90
2023-04-03T04:00:39.849Z,1.93
2023-04-03T04:03:14.648Z,2.10
2023-04-03T04:05:44.500Z,2.40
2023-04-03T04:08:14.328Z,2.37
2023-04-03T04:10:44.180Z,2.20
2023-04-03T04:13:13.997Z,2.30
2023-04-03T04:15:44.143Z,1.93
2023-04-03T04:18:16.864Z,2.70
2023-04-03T04:20:48.538Z,2.40
2023-04-03T04:23:18.527Z,2.60
2023-04-03T04:25:48.728Z,2.17
2023-04-03T04:28:20.969Z,2.10
2023-04-03T04:30:50.920Z,2.17
2023-04-03T04:33:23.349Z,2.70
2023-04-03T04:35:53.204Z,2.00
2023-04-03T04:38:23.086Z,2.60
2023-04-03T04:40:53.144Z,2.00
2023-04-03T04:43:22.972Z,2.30
2023-04-03T04:45:52.828Z,2.30
2023-04-03T04:48:25.274Z,2.43
2023-04-03T04:50:55.067Z,2.77
2023-04-03T04:53:24.878Z,2.80
2023-04-03T04:55:54.775Z,2.53
2023-04-03T04:58:25.413Z,2.40
2023-04-03T05:01:02.562Z,2.23
2023-04-03T05:03:36.791Z,2.57
2023-04-03T05:06:07.160Z,2.60
2023-04-03T05:08:37.090Z,2.93
2023-04-03T05:11:07.050Z,2.87
2023-04-03T05:13:36.882Z,2.57
2023-04-03T05:16:07.231Z,2.47
2023-04-03T05:18:39.721Z,2.90
2023-04-03T05:21:09.531Z,2.70
2023-04-03T05:23:39.345Z,2.93
2023-04-03T05:26:09.504Z,2.83
2023-04-03T05:28:39.777Z,2.10
2023-04-03T05:31:09.590Z,3.40
2023-04-03T05:33:42.061Z,2.50
2023-04-03T05:36:14.002Z,2.60
2023-04-03T05:38:44.176Z,2.77
2023-04-03T05:41:14.213Z,2.70
2023-04-03T05:43:45.260Z,2.70
2023-04-03T05:46:15.947Z,2.90
2023-04-03T05:48:48.701Z,3.00
2023-04-03T05:51:21.895Z,2.87
2023-04-03T05:53:53.907Z,2.70
2023-04-03T05:56:24.177Z,3.13
2023-04-03T05:58:54.008Z,2.73
2023-04-03T06:01:24.769Z,2.73
2023-04-03T06:04:00.039Z,2.70
2023-04-03T06:06:30.204Z,2.50
2023-04-03T06:09:01.548Z,2.60
2023-04-03T06:11:32.986Z,2.77
2023-04-03T06:14:02.769Z,3.27
2023-04-03T06:16:33.642Z,2.83
2023-04-03T06:19:07.055Z,2.60
2023-04-03T06:21:36.957Z,3.00
2023-04-03T06:24:07.139Z,2.73
2023-04-03T06:26:37.599Z,3.23
2023-04-03T06:29:09.613Z,2.60
2023-04-03T06:31:40.921Z,3.17
2023-04-03T06:34:14.961Z,2.53
2023-04-03T06:36:46.224Z,2.80
2023-04-03T06:39:18.423Z,2.90
2023-04-03T06:41:48.752Z,2.37
2023-04-03T06:44:18.617Z,2.97
2023-04-03T06:46:49.743Z,2.37
2023-04-03T06:49:22.761Z,2.97
2023-04-03T06:51:52.860Z,2.90
2023-04-03T06:54:22.755Z,2.83
2023-04-03T06:56:52.635Z,2.63
2023-04-03T06:59:22.501Z,2.30
2023-04-03T07:01:53.016Z,2.60
2023-04-03T07:04:26.012Z,2.60
2023-04-03T07:06:55.914Z,2.60
2023-04-03T07:09:25.866Z,2.43
2023-04-03T07:11:55.702Z,2.80
2023-04-03T07:14:25.676Z,2.30
2023-04-03T07:16:55.852Z,2.53
2023-04-03T07:19:29.189Z,2.60
2023-04-03T07:21:59.016Z,2.60
2023-04-03T07:24:28.865Z,2.27
2023-04-03T07:26:58.704Z,2.47
2023-04-03T07:29:28.629Z,2.70
2023-04-03T07:31:59.005Z,2.40
2023-04-03T07:34:31.893Z,2.83
2023-04-03T07:37:02.354Z,2.00
2023-04-03T07:39:32.229Z,2.70
2023-04-03T07:42:02.029Z,2.63
2023-04-03T07:44:33.992Z,2.50
2023-04-03T07:47:03.845Z,2.20
2023-04-03T07:49:39.262Z,2.33
2023-04-03T07:52:10.246Z,2.67
2023-04-03T07:54:40.157Z,2.30
2023-04-03T07:57:10.075Z,2.57
2023-04-03T07:59:40.872Z,2.37
2023-04-03T08:02:13.263Z,2.13
2023-04-03T08:04:48.453Z,2.17
2023-04-03T08:07:20.001Z,2.83
2023-04-03T08:09:50.451Z,2.20
2023-04-03T08:12:21.012Z,2.53
2023-04-03T08:14:50.951Z,2.03
2023-04-03T08:17:24.811Z,2.20
2023-04-03T08:19:57.305Z,2.20
2023-04-03T08:22:27.536Z,2.03
2023-04-03T08:24:59.255Z,1.83
2023-04-03T08:27:32.492Z,2.13
2023-04-03T08:30:02.650Z,2.30
2023-04-03T08:32:35.747Z,1.90
2023-04-03T08:35:09.121Z,1.87
2023-04-03T08:37:40.217Z,2.03
2023-04-03T08:40:17.207Z,1.73
2023-04-03T08:43:03.241Z,1.70
2023-04-03T08:45:51.132Z,1.80
2023-04-03T08:48:25.675Z,1.90
2023-04-03T08:51:03.639Z,1.50
2023-04-03T08:53:36.611Z,1.80
2023-04-03T08:56:10.747Z,1.43
2023-04-03T08:58:47.743Z,1.90
2023-04-03T09:01:23.911Z,1.73
2023-04-03T09:03:55.473Z,1.80
2023-04-03T09:06:32.651Z,1.70
2023-04-03T09:09:18.069Z,2.00
2023-04-03T09:11:57.235Z,1.53
2023-04-03T09:14:35.768Z,1.63
2023-04-03T09:17:08.834Z,1.83
2023-04-03T09:19:45.961Z,1.50
2023-04-03T09:22:22.880Z,1.40
2023-04-03T09:25:01.256Z,1.37
2023-04-03T09:27:32.005Z,1.50
2023-04-03T09:30:04.481Z,1.40
2023-04-03T09:32:36.146Z,1.37
2023-04-03T09:35:20.723Z,1.67
2023-04-03T09:38:02.111Z,1.40
2023-04-03T09:40:36.594Z,1.40
2023-04-03T09:43:24.378Z,1.70
2023-04-03T09:45:55.824Z,1.67
2023-04-03T09:48:26.683Z,1.47
2023-04-03T09:51:00.582Z,1.60
2023-04-03T09:53:36.606Z,1.37
2023-04-03T09:56:09.671Z,1.70
2023-04-03T09:58:50.471Z,1.87
2023-04-03T10:01:29.115Z,1.83
2023-04-03T10:04:12.702Z,1.30
2023-04-03T10:06:48.124Z,1.10
2023-04-03T10:09:25.871Z,1.67
2023-04-03T10:12:05.886Z,1.50
2023-04-03T10:14:36.746Z,1.60
2023-04-03T10:17:19.464Z,1.93
2023-04-03T10:19:54.009Z,1.60
2023-04-03T10:22:33.771Z,1.90
2023-04-03T10:25:18.804Z,1.60
2023-04-03T10:28:01.116Z,1.60
2023-04-03T10:30:40.772Z,1.40
2023-04-03T10:33:23.323Z,1.53
2023-04-03T10:36:05.950Z,1.43
2023-04-03T10:38:47.325Z,1.60
2023-04-03T10:41:25.327Z,1.80
2023-04-03T10:44:12.222Z,1.30
2023-04-03T10:46:45.681Z,1.53
2023-04-03T10:49:28.524Z,1.53
2023-04-03T10:52:06.240Z,1.50
2023-04-03T10:54:42.085Z,1.63
2023-04-03T10:57:16.079Z,1.60
2023-04-03T10:59:50.363Z,1.50
2023-04-03T11:02:30.820Z,1.10
2023-04-03T11:05:06.323Z,1.63
2023-04-03T11:07:42.337Z,1.50
2023-04-03T11:10:18.776Z,1.90
2023-04-03T11:12:56.918Z,1.50
2023-04-03T11:15:28.516Z,1.50
2023-04-03T11:18:03.252Z,1.50
2023-04-03T11:20:35.747Z,1.33
2023-04-03T11:23:09.883Z,1.10
2023-04-03T11:25:44.428Z,1.70
2023-04-03T11:28:19.135Z,1.83
2023-04-03T11:30:55.323Z,1.50
2023-04-03T11:33:36.642Z,1.43
2023-04-03T11:36:24.932Z,1.67
2023-04-03T11:39:00.551Z,1.20
2023-04-03T11:41:32.968Z,1.30
2023-04-03T11:44:09.197Z,1.50
2023-04-03T11:46:57.263Z,1.40
2023-04-03T11:49:55.302Z,1.50
2023-04-03T11:52:54.878Z,1.50
2023-04-03T11:55:55.858Z,1.47
2023-04-03T11:58:27.526Z,1.40
2023-04-03T12:01:13.513Z,1.40
2023-04-03T12:04:16.159Z,1.20
2023-04-03T12:07:12.211Z,1.00
2023-04-03T12:10:31.731Z,1.20
2023-04-03T12:13:05.617Z,1.43
2023-04-03T12:15:55.000Z,1.50
2023-04-03T12:19:04.821Z,1.20
2023-04-03T12:22:10.572Z,1.33
2023-04-03T12:24:43.656Z,1.30
2023-04-03T12:27:28.563Z,1.70
2023-04-03T12:30:04.351Z,1.57
2023-04-03T12:32:58.918Z,1.40
2023-04-03T12:35:41.460Z,1.40
2023-04-03T12:38:32.052Z,1.70
2023-04-03T12:41:08.782Z,1.30
2023-04-03T12:43:51.670Z,1.33
2023-04-03T12:46:23.445Z,1.57
2023-04-03T12:48:56.319Z,1.33
2023-04-03T12:51:38.180Z,1.53
2023-04-03T12:54:18.730Z,1.43
2023-04-03T12:56:48.520Z,1.30
2023-04-03T12:59:21.355Z,1.57
2023-04-03T13:02:00.382Z,1.60
2023-04-03T13:04:32.244Z,1.43
2023-04-03T13:07:05.328Z,1.33
2023-04-03T13:09:35.880Z,1.70
2023-04-03T13:12:13.315Z,1.60
2023-04-03T13:14:43.998Z,1.40
2023-04-03T13:17:17.685Z,1.93
2023-04-03T13:19:48.737Z,1.70
2023-04-03T13:22:31.428Z,1.60
2023-04-03T13:25:04.265Z,2.10
2023-04-03T13:27:35.082Z,2.00
2023-04-03T13:30:09.378Z,1.77
2023-04-03T13:32:40.138Z,2.00
2023-04-03T13:35:32.562Z,1.80
2023-04-03T13:38:09.181Z,1.80
2023-04-03T13:40:52.186Z,1.77
2023-04-03T13:43:25.187Z,1.90
2023-04-03T13:46:19.912Z,1.80
2023-04-03T13:48:52.297Z,1.80
2023-04-03T13:51:25.131Z,1.80
2023-04-03T13:54:00.153Z,1.53
2023-04-03T13:56:37.130Z,1.50
2023-04-03T13:59:25.882Z,1.80
2023-04-03T14:02:01.592Z,1.87
2023-04-03T14:04:33.955Z,1.93
2023-04-03T14:07:03.854Z,1.70
2023-04-03T14:09:36.270Z,1.40
2023-04-03T14:12:17.935Z,1.77
2023-04-03T14:14:54.452Z,1.30
2023-04-03T14:17:28.996Z,1.80
2023-04-03T14:19:59.914Z,1.23
2023-04-03T14:22:32.729Z,1.53
2023-04-03T14:25:06.036Z,1.60
2023-04-03T14:27:42.366Z,1.63
2023-04-03T14:30:17.971Z,1.30
2023-04-03T14:32:48.166Z,1.20
2023-04-03T14:35:18.782Z,1.33
2023-04-03T14:37:49.743Z,1.10
2023-04-03T14:40:25.315Z,1.10
2023-04-03T14:42:56.627Z,1.27
2023-04-03T14:45:27.587Z,1.17
2023-04-03T14:47:58.839Z,0.90
2023-04-03T14:50:31.079Z,1.20
2023-04-03T14:53:02.973Z,1.00
2023-04-03T14:55:36.423Z,0.97
2023-04-03T14:58:06.252Z,1.40
2023-04-03T15:00:36.197Z,1.00
2023-04-03T15:03:06.196Z,1.03
2023-04-03T15:05:36.180Z,1.00
2023-04-03T15:08:08.669Z,1.07
2023-04-03T15:10:41.212Z,1.10
2023-04-03T15:13:15.691Z,1.27
2023-04-03T15:15:46.198Z,1.17
2023-04-03T15:18:21.920Z,1.20
2023-04-03T15:20:52.070Z,1.20
2023-04-03T15:23:26.922Z,1.30
2023-04-03T15:25:59.908Z,1.10
2023-04-03T15:28:34.078Z,1.17
2023-04-03T15:31:05.825Z,1.13
2023-04-03T15:33:36.659Z,1.10
2023-04-03T15:36:17.153Z,1.27
2023-04-03T15:38:57.720Z,1.30
2023-04-03T15:41:30.171Z,1.30
2023-04-03T15:44:00.663Z,1.27
2023-04-03T15:46:30.524Z,1.23
2023-04-03T15:49:00.497Z,1.60
2023-04-03T15:51:30.340Z,1.10
2023-04-03T15:54:00.149Z,1.60
2023-04-03T15:56:32.551Z,1.27
2023-04-03T15:59:02.438Z,1.60
2023-04-03T16:01:32.382Z,1.33
2023-04-03T16:04:03.960Z,1.50
2023-04-03T16:06:35.000Z,1.40
2023-04-03T16:09:08.139Z,1.40
2023-04-03T16:11:41.344Z,1.30
2023-04-03T16:14:11.871Z,1.30
2023-04-03T16:16:41.994Z,1.60
2023-04-03T16:19:14.426Z,1.77
2023-04-03T16:21:44.246Z,1.50
2023-04-03T16:24:16.044Z,1.30
2023-04-03T16:26:50.836Z,1.40
2023-04-03T16:29:20.669Z,1.40
2023-04-03T16:31:50.952Z,1.30
2023-04-03T16:34:20.858Z,1.40
2023-04-03T16:36:50.713Z,1.33
2023-04-03T16:39:20.687Z,1.50
2023-04-03T16:41:53.232Z,1.17
2023-04-03T16:44:23.034Z,1.30
2023-04-03T16:46:53.734Z,1.33
2023-04-03T16:49:23.597Z,1.30
2023-04-03T16:51:53.531Z,1.30
2023-04-03T16:54:23.333Z,1.70
2023-04-03T16:56:56.537Z,1.33
2023-04-03T16:59:26.836Z,1.20
2023-04-03T17:01:56.701Z,1.57
2023-04-03T17:04:26.633Z,1.20
2023-04-03T17:06:56.676Z,1.23
2023-04-03T17:09:27.393Z,1.30
2023-04-03T17:11:59.815Z,1.40
2023-04-03T17:14:29.636Z,1.50
2023-04-03T17:16:59.633Z,1.37
2023-04-03T17:19:34.498Z,1.20
2023-04-03T17:22:04.669Z,1.33
2023-04-03T17:24:34.657Z,1.27
2023-04-03T17:27:07.526Z,1.80
2023-04-03T17:29:37.333Z,1.33
2023-04-03T17:32:07.466Z,2.30
2023-04-03T17:34:37.274Z,1.23
2023-04-03T17:37:07.107Z,1.30
2023-04-03T17:39:36.992Z,1.83
2023-04-03T17:42:09.468Z,1.50
2023-04-03T17:44:39.314Z,1.67
2023-04-03T17:47:09.121Z,1.50
2023-04-03T17:49:38.970Z,1.40
2023-04-03T17:52:08.778Z,1.37
2023-04-03T17:54:38.599Z,2.00
2023-04-03T17:57:11.157Z,1.73
2023-04-03T17:59:41.979Z,2.00
2023-04-03T18:02:11.802Z,1.77
2023-04-03T18:04:41.854Z,1.47
2023-04-03T18:07:12.226Z,1.77
2023-04-03T18:09:42.804Z,1.40
2023-04-03T18:12:15.595Z,1.87
2023-04-03T18:14:45.524Z,1.63
2023-04-03T18:17:17.254Z,2.20
2023-04-03T18:19:47.059Z,1.80
2023-04-03T18:22:21.252Z,2.00
2023-04-03T18:24:51.555Z,1.80
2023-04-03T18:27:25.935Z,1.90
2023-04-03T18:29:59.196Z,2.03
2023-04-03T18:32:29.276Z,2.00
2023-04-03T18:34:59.586Z,2.00
2023-04-03T18:37:29.464Z,1.70
2023-04-03T18:40:01.567Z,1.83
2023-04-03T18:42:33.999Z,1.70
2023-04-03T18:45:07.570Z,1.60
2023-04-03T18:47:37.454Z,1.73
2023-04-03T18:50:11.400Z,1.67
2023-04-03T18:52:41.232Z,1.90
2023-04-03T18:55:14.741Z,1.90
2023-04-03T18:57:47.301Z,1.63
2023-04-03T19:00:19.742Z,1.57
2023-04-03T19:02:53.328Z,1.70
2023-04-03T19:05:24.116Z,1.87
2023-04-03T19:07:53.928Z,1.50
2023-04-03T19:10:23.765Z,1.80
2023-04-03T19:12:56.413Z,1.60
2023-04-03T19:15:28.056Z,1.60
2023-04-03T19:17:57.952Z,1.70
2023-04-03T19:20:27.975Z,1.60
2023-04-03T19:22:58.024Z,1.53
2023-04-03T19:25:27.797Z,1.60
2023-04-03T19:28:01.064Z,1.47
2023-04-03T19:30:32.056Z,1.80
2023-04-03T19:33:02.045Z,1.50
2023-04-03T19:35:32.078Z,1.40
2023-04-03T19:38:01.873Z,1.60
2023-04-03T19:40:32.820Z,1.40
2023-04-03T19:43:05.417Z,1.50
2023-04-03T19:45:35.269Z,1.23
2023-04-03T19:48:06.079Z,1.13
2023-04-03T19:50:36.122Z,1.60
2023-04-03T19:53:06.101Z,1.67
2023-04-03T19:55:36.568Z,1.57
2023-04-03T19:58:09.169Z,1.50
2023-04-03T20:00:39.174Z,1.50
2023-04-03T20:03:13.083Z,1.87
2023-04-03T20:05:43.043Z,1.97
2023-04-03T20:08:12.866Z,1.70
2023-04-03T20:10:43.132Z,1.60
2023-04-03T20:13:15.555Z,2.20
2023-04-03T20:15:46.112Z,1.50
2023-04-03T20:18:21.985Z,1.70
2023-04-03T20:20:56.212Z,1.30
2023-04-03T20:23:27.407Z,1.50
2023-04-03T20:26:09.488Z,1.67
2023-04-03T20:28:45.079Z,1.37
2023-04-03T20:31:14.963Z,1.67
2023-04-03T20:33:45.099Z,1.60
2023-04-03T20:36:15.873Z,1.90
2023-04-03T20:38:45.750Z,1.67
2023-04-03T20:41:17.928Z,1.80
2023-04-03T20:43:50.819Z,1.50
2023-04-03T20:46:21.215Z,1.70
2023-04-03T20:48:51.516Z,2.10
2023-04-03T20:51:22.870Z,2.03
2023-04-03T20:53:55.649Z,1.60
2023-04-03T20:56:25.487Z,1.90
2023-04-03T20:58:58.705Z,1.47
2023-04-03T21:01:28.640Z,2.27
2023-04-03T21:04:12.325Z,1.40
2023-04-03T21:07:15.335Z,1.53
2023-04-03T21:10:15.116Z,1.67
2023-04-03T21:13:14.890Z,1.60
2023-04-03T21:15:52.437Z,1.70
2023-04-03T21:19:05.238Z,1.70
2023-04-03T21:21:37.965Z,1.67
2023-04-03T21:24:10.917Z,1.83
2023-04-03T21:26:42.154Z,1.60
2023-04-03T21:29:13.585Z,1.90
2023-04-03T21:31:56.962Z,1.87
2023-04-03T21:34:31.289Z,1.40
2023-04-03T21:37:05.747Z,1.80
2023-04-03T21:39:36.452Z,1.70
2023-04-03T21:42:07.621Z,1.57
2023-04-03T21:44:37.619Z,1.90
2023-04-03T21:47:07.859Z,1.73
2023-04-03T21:49:41.008Z,1.80
2023-04-03T21:52:10.852Z,1.70
2023-04-03T21:54:40.608Z,1.90
2023-04-03T21:57:11.889Z,2.07
2023-04-03T21:59:42.191Z,2.00
2023-04-03T22:02:16.347Z,2.07
2023-04-03T22:04:50.354Z,1.80
2023-04-03T22:07:20.126Z,1.90
2023-04-03T22:09:49.914Z,1.60
2023-04-03T22:12:19.752Z,1.70
2023-04-03T22:14:49.698Z,2.07
2023-04-03T22:17:19.705Z,1.87
2023-04-03T22:19:52.125Z,1.80
2023-04-03T22:22:21.910Z,2.03
2023-04-03T22:24:53.275Z,2.07
2023-04-03T22:27:23.165Z,2.43
2023-04-03T22:29:52.965Z,1.73
2023-04-03T22:32:22.804Z,2.00
2023-04-03T22:34:55.209Z,1.73
2023-04-03T22:37:25.080Z,1.60
2023-04-03T22:39:54.911Z,1.80
2023-04-03T22:42:24.703Z,1.77
2023-04-03T22:44:54.510Z,2.07
2023-04-03T22:47:24.325Z,2.33
2023-04-03T22:49:57.581Z,2.20
2023-04-03T22:52:27.383Z,1.80
2023-04-03T22:55:01.364Z,2.27
2023-04-03T22:57:36.214Z,2.10
2023-04-03T23:00:06.037Z,2.20
2023-04-03T23:02:36.378Z,2.27
2023-04-03T23:05:10.317Z,2.43
2023-04-03T23:07:40.085Z,2.37
2023-04-03T23:10:11.307Z,2.40
2023-04-03T23:12:41.508Z,2.60
2023-04-03T23:15:12.237Z,2.90
2023-04-03T23:17:42.519Z,2.23
2023-04-03T23:20:15.786Z,2.70
2023-04-03T23:22:46.574Z,2.23
2023-04-03T23:25:19.525Z,2.63
2023-04-03T23:27:53.775Z,2.50
2023-04-03T23:30:24.067Z,2.43
2023-04-03T23:32:54.002Z,2.40
2023-04-03T23:35:26.984Z,2.37
2023-04-03T23:37:56.779Z,2.37
2023-04-03T23:40:26.551Z,2.00
2023-04-03T23:42:56.414Z,2.60
2023-04-03T23:45:27.259Z,2.70
2023-04-03T23:48:00.274Z,2.30
2023-04-03T23:50:32.796Z,2.17
2023-04-03T23:53:02.663Z,2.80
2023-04-03T23:55:32.560Z,2.47
2023-04-03T23:58:02.339Z,2.20
